Alger, Michigan
Current Conditions -  °F | °C
As of 5:53 PM on Thursday 27 Nov 2014 (Local Time) from KHTL Reporting Station
Light Snow Light Snow  
Wind Chill:   Ceiling: 4300
Heat Index: 19°   Visibility: 10mi
Dew Point: 12°   Wind: 13mph
Humidity: 74%   Direction: 300°WNW
Pressure: 30.23"   Gusts: NA
Location:  44.13°N, 84.12°W
Report Text: KHTL 272253Z AUTO 30011KT 10SM -SN SCT034 BKN043 M07/M11 A3023 RMK AO2 SNB2154E27B53 SLP257 P0000 T10721111
Loading
Personal Weather Stations






























Interactive Weather Map New forecast layout! Learn more

10-Day Weather Forecast

Advertisements
Track Severe Weather on mobile